Forest River, North Dakota
Current Conditions -  °F | °C
As of 3:13 AM on Monday 22 Dec 2014 (Local Time) from KRDR Reporting Station
Haze Haze  
Wind Chill: 32°   Ceiling: 300
Heat Index: 32°   Visibility: 1.7mi
Dew Point: 32°   Wind: 3mph
Humidity: 100%   Direction: 100°E
Pressure: 29.53"   Gusts: NA
Location:  48.22°N, 97.47°W
Report Text: KRDR 220913Z AUTO 10003KT 1 3/4SM R35/3000FT BR OVC003 00/00 A2953 RMK AO2 VIS 1 1/4V1 3/4
Loading
Personal Weather Stations






























Interactive Weather Map New forecast layout! Learn more

10-Day Weather Forecast

Advertisements
Track Severe Weather on mobile